Los Angeles, California
Traffic Map
Current Weather Conditions
Los Angeles, California
Overcast Haze
Overcast
19°
Feels Like: 19°
Wind Chill: 19° Ceiling: 700
Heat Index: 19° Visibility: 4mi
Dew Point: 17° Wind: 0mph
Humidity: 87% Direction: ° ()
Pressure: 29.9in Gusts: 0mph
Raw Report DataKCQT 291147Z AUTO 00000KT 4SM BR OVC007 19/17 A2990 RMK AO2 SLP123 T01940172 10194 20189 55000
Traffic Incident Summary
Active as of:
Severity:
Category:
InformationThere was an issue retrieving the traffic information for this location. Please try a different location or try again shortly.
Advertisements
Track Severe Weather on mobile